SAVY/PMY METAR and TAF weather

Enter ICAO airport designator
Station Type Date Time Source
SAVY METAR 2019/03/14 17:30 UTC NOAA

SAVY 141730Z 07022KT 5000 RA SCT005 BKN020 OVC040 15/14 Q1014


Station Type Date Time Source
SAVY Decoded METAR 2019/03/14 17:30 UTC NOAA

Puerto Madryn, CHT, Argentina (SAVY) 42-45-33S 065-06-10W
Mar 14, 2019 - 01:30 PM EDT / 2019.03.14 1730 UTC
Wind: from the ENE (070 degrees) at 25 MPH (22 KT):0
Visibility: 3 mile(s):0
Sky conditions: overcast
Weather: rain
Temperature: 59 F (15 C)
Dew Point: 57 F (14 C)
Relative Humidity: 93%
Pressure (altimeter): 29.94 in. Hg (1014 hPa)
ob: SAVY 141730Z 07022KT 5000 RA SCT005 BKN020 OVC040 15/14 Q1014
cycle: 17

Station Type Date Time Source
SAVY TAF UTC NOAA

Error!

Example: see airport list